sensor_id;sensor_type;location;lat;lon;timestamp;temperature;humidity
66343;DHT22;53144;51.524;5.080;2024-01-11T00:01:48;-3.65;79.20
66343;DHT22;53144;51.524;5.080;2024-01-11T00:04:16;-3.59;79.48
66343;DHT22;53144;51.524;5.080;2024-01-11T00:06:42;-3.62;79.77
66343;DHT22;53144;51.524;5.080;2024-01-11T00:09:08;-3.63;79.90
66343;DHT22;53144;51.524;5.080;2024-01-11T00:11:33;-3.60;80.12
66343;DHT22;53144;51.524;5.080;2024-01-11T00:13:59;-3.62;79.72
66343;DHT22;53144;51.524;5.080;2024-01-11T00:16:24;-3.60;79.89
66343;DHT22;53144;51.524;5.080;2024-01-11T00:18:50;-3.69;79.98
66343;DHT22;53144;51.524;5.080;2024-01-11T00:21:15;-3.69;80.30
66343;DHT22;53144;51.524;5.080;2024-01-11T00:23:40;-3.65;80.56
66343;DHT22;53144;51.524;5.080;2024-01-11T00:26:06;-3.66;80.11
66343;DHT22;53144;51.524;5.080;2024-01-11T00:28:31;-3.70;80.50
66343;DHT22;53144;51.524;5.080;2024-01-11T00:30:57;-3.63;80.20
66343;DHT22;53144;51.524;5.080;2024-01-11T00:33:22;-3.70;80.51
66343;DHT22;53144;51.524;5.080;2024-01-11T00:35:50;-3.67;79.96
66343;DHT22;53144;51.524;5.080;2024-01-11T00:38:16;-3.66;80.02
66343;DHT22;53144;51.524;5.080;2024-01-11T00:40:41;-3.63;79.93
66343;DHT22;53144;51.524;5.080;2024-01-11T00:43:06;-3.66;79.91
66343;DHT22;53144;51.524;5.080;2024-01-11T00:45:32;-3.73;80.24
66343;DHT22;53144;51.524;5.080;2024-01-11T00:47:57;-3.76;80.35
66343;DHT22;53144;51.524;5.080;2024-01-11T00:50:23;-3.70;80.53
66343;DHT22;53144;51.524;5.080;2024-01-11T00:52:48;-3.58;80.23
66343;DHT22;53144;51.524;5.080;2024-01-11T00:55:14;-3.73;80.02
66343;DHT22;53144;51.524;5.080;2024-01-11T00:57:41;-3.66;80.34
66343;DHT22;53144;51.524;5.080;2024-01-11T01:00:07;-3.75;79.90
66343;DHT22;53144;51.524;5.080;2024-01-11T01:02:33;-3.69;80.50
66343;DHT22;53144;51.524;5.080;2024-01-11T01:04:58;-3.82;80.73
66343;DHT22;53144;51.524;5.080;2024-01-11T01:07:23;-3.76;80.71
66343;DHT22;53144;51.524;5.080;2024-01-11T01:09:49;-3.87;81.13
66343;DHT22;53144;51.524;5.080;2024-01-11T01:12:15;-3.97;81.22
66343;DHT22;53144;51.524;5.080;2024-01-11T01:14:41;-3.98;81.85
66343;DHT22;53144;51.524;5.080;2024-01-11T01:17:06;-3.91;81.34
66343;DHT22;53144;51.524;5.080;2024-01-11T01:19:31;-3.96;81.65
66343;DHT22;53144;51.524;5.080;2024-01-11T01:25:42;-3.96;81.32
66343;DHT22;53144;51.524;5.080;2024-01-11T01:28:07;-3.91;81.32
66343;DHT22;53144;51.524;5.080;2024-01-11T01:30:33;-3.86;81.10
66343;DHT22;53144;51.524;5.080;2024-01-11T01:32:58;-3.73;80.67
66343;DHT22;53144;51.524;5.080;2024-01-11T01:35:24;-3.73;80.82
66343;DHT22;53144;51.524;5.080;2024-01-11T01:37:49;-3.87;80.83
66343;DHT22;53144;51.524;5.080;2024-01-11T01:40:15;-3.80;80.81
66343;DHT22;53144;51.524;5.080;2024-01-11T01:42:44;-3.93;80.82
66343;DHT22;53144;51.524;5.080;2024-01-11T01:45:10;-3.85;80.94
66343;DHT22;53144;51.524;5.080;2024-01-11T01:47:37;-3.89;80.86
66343;DHT22;53144;51.524;5.080;2024-01-11T01:50:03;-4.03;81.11
66343;DHT22;53144;51.524;5.080;2024-01-11T01:52:29;-4.01;81.08
66343;DHT22;53144;51.524;5.080;2024-01-11T01:54:57;-4.00;80.80
66343;DHT22;53144;51.524;5.080;2024-01-11T01:57:23;-4.00;81.20
66343;DHT22;53144;51.524;5.080;2024-01-11T01:59:51;-3.98;81.00
66343;DHT22;53144;51.524;5.080;2024-01-11T02:02:19;-4.00;81.20
66343;DHT22;53144;51.524;5.080;2024-01-11T02:04:45;-3.98;81.17
66343;DHT22;53144;51.524;5.080;2024-01-11T02:07:10;-4.01;81.44
66343;DHT22;53144;51.524;5.080;2024-01-11T02:09:36;-4.04;81.47
66343;DHT22;53144;51.524;5.080;2024-01-11T02:12:03;-3.91;81.32
66343;DHT22;53144;51.524;5.080;2024-01-11T02:14:28;-4.06;81.56
66343;DHT22;53144;51.524;5.080;2024-01-11T02:16:54;-4.03;81.66
66343;DHT22;53144;51.524;5.080;2024-01-11T02:19:19;-4.01;82.13
66343;DHT22;53144;51.524;5.080;2024-01-11T02:21:46;-4.08;81.62
66343;DHT22;53144;51.524;5.080;2024-01-11T02:24:38;-4.17;82.51
66343;DHT22;53144;51.524;5.080;2024-01-11T02:27:04;-4.18;82.64
66343;DHT22;53144;51.524;5.080;2024-01-11T02:29:30;-4.27;83.03
66343;DHT22;53144;51.524;5.080;2024-01-11T02:31:56;-4.35;83.46
66343;DHT22;53144;51.524;5.080;2024-01-11T02:34:26;-4.28;82.84
66343;DHT22;53144;51.524;5.080;2024-01-11T02:36:53;-4.40;83.58
66343;DHT22;53144;51.524;5.080;2024-01-11T02:39:38;-4.24;83.16
66343;DHT22;53144;51.524;5.080;2024-01-11T02:42:04;-4.21;82.91
66343;DHT22;53144;51.524;5.080;2024-01-11T02:44:29;-4.18;82.68
66343;DHT22;53144;51.524;5.080;2024-01-11T02:46:54;-4.17;82.35
66343;DHT22;53144;51.524;5.080;2024-01-11T02:49:20;-4.19;82.52
66343;DHT22;53144;51.524;5.080;2024-01-11T02:51:45;-4.25;82.16
66343;DHT22;53144;51.524;5.080;2024-01-11T02:54:11;-4.32;82.95
66343;DHT22;53144;51.524;5.080;2024-01-11T02:56:36;-4.29;83.18
66343;DHT22;53144;51.524;5.080;2024-01-11T02:59:02;-4.28;83.21
66343;DHT22;53144;51.524;5.080;2024-01-11T03:01:27;-4.34;83.15
66343;DHT22;53144;51.524;5.080;2024-01-11T03:03:54;-4.37;83.63
66343;DHT22;53144;51.524;5.080;2024-01-11T03:06:19;-4.41;83.25
66343;DHT22;53144;51.524;5.080;2024-01-11T03:08:48;-4.38;82.90
66343;DHT22;53144;51.524;5.080;2024-01-11T03:11:38;-4.28;82.78
66343;DHT22;53144;51.524;5.080;2024-01-11T03:14:28;-4.27;82.54
66343;DHT22;53144;51.524;5.080;2024-01-11T03:17:19;-4.25;82.48
66343;DHT22;53144;51.524;5.080;2024-01-11T03:20:09;-4.37;82.73
66343;DHT22;53144;51.524;5.080;2024-01-11T03:23:00;-4.31;82.83
66343;DHT22;53144;51.524;5.080;2024-01-11T03:25:25;-4.34;82.74
66343;DHT22;53144;51.524;5.080;2024-01-11T03:27:51;-4.35;82.73
66343;DHT22;53144;51.524;5.080;2024-01-11T03:30:16;-4.19;82.79
66343;DHT22;53144;51.524;5.080;2024-01-11T03:32:42;-4.32;82.76
66343;DHT22;53144;51.524;5.080;2024-01-11T03:35:08;-4.28;82.74
66343;DHT22;53144;51.524;5.080;2024-01-11T03:37:34;-4.34;83.09
66343;DHT22;53144;51.524;5.080;2024-01-11T03:40:00;-4.35;82.55
66343;DHT22;53144;51.524;5.080;2024-01-11T03:42:26;-4.37;82.90
66343;DHT22;53144;51.524;5.080;2024-01-11T03:44:51;-4.38;82.76
66343;DHT22;53144;51.524;5.080;2024-01-11T03:47:16;-4.34;82.93
66343;DHT22;53144;51.524;5.080;2024-01-11T03:49:42;-4.40;82.86
66343;DHT22;53144;51.524;5.080;2024-01-11T03:52:07;-4.28;82.70
66343;DHT22;53144;51.524;5.080;2024-01-11T03:54:33;-4.35;82.52
66343;DHT22;53144;51.524;5.080;2024-01-11T03:56:58;-4.49;83.11
66343;DHT22;53144;51.524;5.080;2024-01-11T03:59:24;-4.48;83.42
66343;DHT22;53144;51.524;5.080;2024-01-11T04:01:49;-4.72;84.33
66343;DHT22;53144;51.524;5.080;2024-01-11T04:04:15;-4.54;84.20
66343;DHT22;53144;51.524;5.080;2024-01-11T04:06:40;-4.51;83.70
66343;DHT22;53144;51.524;5.080;2024-01-11T04:09:05;-4.62;84.10
66343;DHT22;53144;51.524;5.080;2024-01-11T04:11:31;-4.64;84.22
66343;DHT22;53144;51.524;5.080;2024-01-11T04:13:57;-4.58;84.30
66343;DHT22;53144;51.524;5.080;2024-01-11T04:16:22;-4.83;84.61
66343;DHT22;53144;51.524;5.080;2024-01-11T04:18:47;-4.72;84.60
66343;DHT22;53144;51.524;5.080;2024-01-11T04:21:25;-4.61;84.40
66343;DHT22;53144;51.524;5.080;2024-01-11T04:23:53;-4.64;84.57
66343;DHT22;53144;51.524;5.080;2024-01-11T04:26:20;-4.54;84.10
66343;DHT22;53144;51.524;5.080;2024-01-11T04:28:46;-4.71;84.50
66343;DHT22;53144;51.524;5.080;2024-01-11T04:31:15;-4.77;84.76
66343;DHT22;53144;51.524;5.080;2024-01-11T04:33:45;-4.72;84.77
66343;DHT22;53144;51.524;5.080;2024-01-11T04:36:11;-4.65;84.40
66343;DHT22;53144;51.524;5.080;2024-01-11T04:38:38;-4.65;84.48
66343;DHT22;53144;51.524;5.080;2024-01-11T04:41:14;-4.69;84.81
66343;DHT22;53144;51.524;5.080;2024-01-11T04:43:43;-4.72;84.75
66343;DHT22;53144;51.524;5.080;2024-01-11T04:46:19;-4.75;85.07
66343;DHT22;53144;51.524;5.080;2024-01-11T04:48:45;-4.77;85.26
66343;DHT22;53144;51.524;5.080;2024-01-11T04:51:13;-4.77;85.72
66343;DHT22;53144;51.524;5.080;2024-01-11T04:53:40;-4.76;85.19
66343;DHT22;53144;51.524;5.080;2024-01-11T04:56:06;-4.71;85.28
66343;DHT22;53144;51.524;5.080;2024-01-11T04:58:33;-4.82;84.91
66343;DHT22;53144;51.524;5.080;2024-01-11T05:00:58;-4.68;84.92
66343;DHT22;53144;51.524;5.080;2024-01-11T05:03:23;-4.93;85.27
66343;DHT22;53144;51.524;5.080;2024-01-11T05:05:49;-4.92;85.55
66343;DHT22;53144;51.524;5.080;2024-01-11T05:08:14;-4.92;86.19
66343;DHT22;53144;51.524;5.080;2024-01-11T05:10:40;-4.93;85.76
66343;DHT22;53144;51.524;5.080;2024-01-11T05:13:05;-4.87;85.51
66343;DHT22;53144;51.524;5.080;2024-01-11T05:15:30;-4.97;85.75
66343;DHT22;53144;51.524;5.080;2024-01-11T05:17:56;-5.01;86.14
66343;DHT22;53144;51.524;5.080;2024-01-11T05:20:22;-5.01;85.98
66343;DHT22;53144;51.524;5.080;2024-01-11T05:22:47;-4.89;85.50
66343;DHT22;53144;51.524;5.080;2024-01-11T05:25:38;-5.00;85.75
66343;DHT22;53144;51.524;5.080;2024-01-11T05:28:29;-4.99;85.85
66343;DHT22;53144;51.524;5.080;2024-01-11T05:30:56;-5.08;86.33
66343;DHT22;53144;51.524;5.080;2024-01-11T05:33:21;-5.11;86.48
66343;DHT22;53144;51.524;5.080;2024-01-11T05:35:47;-5.03;86.45
66343;DHT22;53144;51.524;5.080;2024-01-11T05:38:12;-4.99;86.11
66343;DHT22;53144;51.524;5.080;2024-01-11T05:40:37;-5.13;86.54
66343;DHT22;53144;51.524;5.080;2024-01-11T05:43:03;-5.20;86.75
66343;DHT22;53144;51.524;5.080;2024-01-11T05:45:29;-5.18;86.86
66343;DHT22;53144;51.524;5.080;2024-01-11T05:47:54;-5.07;86.64
66343;DHT22;53144;51.524;5.080;2024-01-11T05:50:19;-5.08;86.59
66343;DHT22;53144;51.524;5.080;2024-01-11T05:52:45;-5.17;86.78
66343;DHT22;53144;51.524;5.080;2024-01-11T05:55:10;-5.06;86.40
66343;DHT22;53144;51.524;5.080;2024-01-11T05:57:36;-5.10;86.36
66343;DHT22;53144;51.524;5.080;2024-01-11T06:00:02;-5.10;86.42
66343;DHT22;53144;51.524;5.080;2024-01-11T06:02:27;-4.96;85.81
66343;DHT22;53144;51.524;5.080;2024-01-11T06:04:53;-5.04;85.83
66343;DHT22;53144;51.524;5.080;2024-01-11T06:07:21;-5.04;85.90
66343;DHT22;53144;51.524;5.080;2024-01-11T06:09:46;-5.03;86.16
66343;DHT22;53144;51.524;5.080;2024-01-11T06:12:12;-5.20;86.37
66343;DHT22;53144;51.524;5.080;2024-01-11T06:14:39;-5.17;86.76
66343;DHT22;53144;51.524;5.080;2024-01-11T06:17:04;-5.39;87.46
66343;DHT22;53144;51.524;5.080;2024-01-11T06:19:29;-5.37;87.46
66343;DHT22;53144;51.524;5.080;2024-01-11T06:21:55;-5.37;87.66
66343;DHT22;53144;51.524;5.080;2024-01-11T06:30:58;-5.21;87.08
66343;DHT22;53144;51.524;5.080;2024-01-11T06:33:23;-5.35;87.30
66343;DHT22;53144;51.524;5.080;2024-01-11T06:35:49;-5.44;87.36
66343;DHT22;53144;51.524;5.080;2024-01-11T06:38:14;-5.28;87.62
66343;DHT22;53144;51.524;5.080;2024-01-11T06:40:40;-5.47;88.11
66343;DHT22;53144;51.524;5.080;2024-01-11T06:43:05;-5.50;88.00
66343;DHT22;53144;51.524;5.080;2024-01-11T06:45:31;-5.56;88.09
66343;DHT22;53144;51.524;5.080;2024-01-11T06:47:56;-5.58;88.22
66343;DHT22;53144;51.524;5.080;2024-01-11T06:50:22;-5.56;88.32
66343;DHT22;53144;51.524;5.080;2024-01-11T06:52:47;-5.61;88.30
66343;DHT22;53144;51.524;5.080;2024-01-11T06:55:13;-5.68;88.91
66343;DHT22;53144;51.524;5.080;2024-01-11T06:57:38;-5.62;88.26
66343;DHT22;53144;51.524;5.080;2024-01-11T07:00:04;-5.72;88.87
66343;DHT22;53144;51.524;5.080;2024-01-11T07:02:30;-5.74;88.90
66343;DHT22;53144;51.524;5.080;2024-01-11T07:04:55;-5.82;89.03
66343;DHT22;53144;51.524;5.080;2024-01-11T07:07:20;-5.72;89.22
66343;DHT22;53144;51.524;5.080;2024-01-11T07:09:46;-5.68;89.04
66343;DHT22;53144;51.524;5.080;2024-01-11T07:12:12;-5.65;89.13
66343;DHT22;53144;51.524;5.080;2024-01-11T07:14:38;-5.64;89.03
66343;DHT22;53144;51.524;5.080;2024-01-11T07:17:03;-5.59;88.80
66343;DHT22;53144;51.524;5.080;2024-01-11T07:19:29;-5.48;88.12
66343;DHT22;53144;51.524;5.080;2024-01-11T07:21:54;-5.54;88.85
66343;DHT22;53144;51.524;5.080;2024-01-11T07:24:20;-5.64;89.00
66343;DHT22;53144;51.524;5.080;2024-01-11T07:26:45;-5.61;88.89
66343;DHT22;53144;51.524;5.080;2024-01-11T07:29:10;-5.48;88.78
66343;DHT22;53144;51.524;5.080;2024-01-11T07:31:36;-5.51;88.66
66343;DHT22;53144;51.524;5.080;2024-01-11T07:34:01;-5.35;88.62
66343;DHT22;53144;51.524;5.080;2024-01-11T07:36:27;-5.56;88.58
66343;DHT22;53144;51.524;5.080;2024-01-11T07:38:53;-5.42;88.39
66343;DHT22;53144;51.524;5.080;2024-01-11T07:41:22;-5.44;88.44
66343;DHT22;53144;51.524;5.080;2024-01-11T07:43:47;-5.42;88.28
66343;DHT22;53144;51.524;5.080;2024-01-11T07:46:16;-5.41;88.25
66343;DHT22;53144;51.524;5.080;2024-01-11T07:48:41;-5.31;88.08
66343;DHT22;53144;51.524;5.080;2024-01-11T07:51:07;-5.44;88.63
66343;DHT22;53144;51.524;5.080;2024-01-11T07:53:32;-5.41;88.34
66343;DHT22;53144;51.524;5.080;2024-01-11T07:55:58;-5.34;88.15
66343;DHT22;53144;51.524;5.080;2024-01-11T07:58:23;-5.45;88.33
66343;DHT22;53144;51.524;5.080;2024-01-11T08:00:49;-5.44;88.69
66343;DHT22;53144;51.524;5.080;2024-01-11T08:03:14;-5.44;88.74
66343;DHT22;53144;51.524;5.080;2024-01-11T08:05:40;-5.39;88.44
66343;DHT22;53144;51.524;5.080;2024-01-11T08:08:06;-5.47;88.88
66343;DHT22;53144;51.524;5.080;2024-01-11T08:10:32;-5.35;88.49
66343;DHT22;53144;51.524;5.080;2024-01-11T08:12:57;-5.34;88.77
66343;DHT22;53144;51.524;5.080;2024-01-11T08:15:24;-5.34;88.85
66343;DHT22;53144;51.524;5.080;2024-01-11T08:17:50;-5.30;88.80
66343;DHT22;53144;51.524;5.080;2024-01-11T08:20:15;-5.21;88.34
66343;DHT22;53144;51.524;5.080;2024-01-11T08:22:41;-5.24;88.43
66343;DHT22;53144;51.524;5.080;2024-01-11T08:25:09;-5.20;88.62
66343;DHT22;53144;51.524;5.080;2024-01-11T08:27:59;-5.17;88.61
66343;DHT22;53144;51.524;5.080;2024-01-11T08:30:28;-5.10;88.11
66343;DHT22;53144;51.524;5.080;2024-01-11T08:32:53;-5.10;88.13
66343;DHT22;53144;51.524;5.080;2024-01-11T08:35:44;-5.10;88.65
66343;DHT22;53144;51.524;5.080;2024-01-11T08:38:35;-4.99;88.40
66343;DHT22;53144;51.524;5.080;2024-01-11T08:41:25;-4.86;87.86
66343;DHT22;53144;51.524;5.080;2024-01-11T08:44:15;-4.75;87.77
66343;DHT22;53144;51.524;5.080;2024-01-11T08:46:43;-4.69;87.36
66343;DHT22;53144;51.524;5.080;2024-01-11T08:49:09;-4.87;87.53
66343;DHT22;53144;51.524;5.080;2024-01-11T08:51:34;-4.71;87.43
66343;DHT22;53144;51.524;5.080;2024-01-11T08:54:00;-4.66;87.08
66343;DHT22;53144;51.524;5.080;2024-01-11T08:56:25;-4.55;87.13
66343;DHT22;53144;51.524;5.080;2024-01-11T08:58:51;-4.42;86.46
66343;DHT22;53144;51.524;5.080;2024-01-11T09:01:17;-4.48;86.61
66343;DHT22;53144;51.524;5.080;2024-01-11T09:03:43;-4.34;86.67
66343;DHT22;53144;51.524;5.080;2024-01-11T09:06:09;-4.38;86.48
66343;DHT22;53144;51.524;5.080;2024-01-11T09:08:35;-4.27;86.80
66343;DHT22;53144;51.524;5.080;2024-01-11T09:11:00;-4.18;86.26
66343;DHT22;53144;51.524;5.080;2024-01-11T09:13:26;-4.17;85.68
66343;DHT22;53144;51.524;5.080;2024-01-11T09:15:52;-3.79;85.45
66343;DHT22;53144;51.524;5.080;2024-01-11T09:18:19;-3.67;84.29
66343;DHT22;53144;51.524;5.080;2024-01-11T09:20:44;-3.70;83.45
66343;DHT22;53144;51.524;5.080;2024-01-11T09:23:09;-3.51;83.00
66343;DHT22;53144;51.524;5.080;2024-01-11T09:32:06;-3.04;81.87
66343;DHT22;53144;51.524;5.080;2024-01-11T09:34:32;-2.94;81.04
66343;DHT22;53144;51.524;5.080;2024-01-11T09:36:57;-2.57;80.51
66343;DHT22;53144;51.524;5.080;2024-01-11T09:39:24;-2.41;79.47
66343;DHT22;53144;51.524;5.080;2024-01-11T09:41:59;-2.55;79.52
66343;DHT22;53144;51.524;5.080;2024-01-11T09:44:29;-2.38;79.61
66343;DHT22;53144;51.524;5.080;2024-01-11T09:46:55;-2.01;78.72
66343;DHT22;53144;51.524;5.080;2024-01-11T09:49:21;-1.80;77.41
66343;DHT22;53144;51.524;5.080;2024-01-11T09:51:47;-1.67;77.08
66343;DHT22;53144;51.524;5.080;2024-01-11T09:54:14;-1.70;76.46
66343;DHT22;53144;51.524;5.080;2024-01-11T09:56:40;-1.49;76.46
66343;DHT22;53144;51.524;5.080;2024-01-11T09:59:06;-1.60;75.74
66343;DHT22;53144;51.524;5.080;2024-01-11T10:01:35;-0.81;74.35
66343;DHT22;53144;51.524;5.080;2024-01-11T10:04:01;-0.63;72.38
66343;DHT22;53144;51.524;5.080;2024-01-11T10:06:32;-0.74;73.56
66343;DHT22;53144;51.524;5.080;2024-01-11T10:08:58;0.08;71.88
66343;DHT22;53144;51.524;5.080;2024-01-11T10:11:24;-0.36;70.90
66343;DHT22;53144;51.524;5.080;2024-01-11T10:13:56;-0.32;72.91
66343;DHT22;53144;51.524;5.080;2024-01-11T10:16:21;-0.33;72.18
66343;DHT22;53144;51.524;5.080;2024-01-11T10:18:47;-0.09;70.98
66343;DHT22;53144;51.524;5.080;2024-01-11T10:21:12;0.15;71.31
66343;DHT22;53144;51.524;5.080;2024-01-11T10:23:37;0.01;70.81
66343;DHT22;53144;51.524;5.080;2024-01-11T10:26:04;-0.54;70.84
